Time;durP1;ratioP1;P1;durP2;ratioP2;P2;SDS_P1;SDS_P2;PMS_P1;PMS_P2;Temp;Humidity;BMP_temperature;BMP_pressure;BME280_temperature;BME280_humidity;BME280_pressure;Samples;Min_cycle;Max_cycle;Signal;HPM_P1;HPM_P2
2023/06/20 00:03:00;;;;;;;17.10;13.70;;;;;;;21.51;60.68;100382.70;219281;1265;140881;-82
2023/06/20 00:08:00;;;;;;;17.40;13.70;;;;;;;21.48;60.69;100389.05;219974;1267;138768;-82
2023/06/20 00:13:00;;;;;;;20.00;13.80;;;;;;;21.42;60.71;100381.88;219497;1267;141045;-82
2023/06/20 00:18:01;;;;;;;18.30;13.00;;;;;;;21.36;60.82;100384.26;220067;1267;139169;-83
2023/06/20 00:23:02;;;;;;;20.10;13.40;;;;;;;21.29;61.14;100379.04;219566;1267;140978;-83
2023/06/20 00:28:03;;;;;;;26.30;12.60;;;;;;;21.20;61.77;100383.84;220050;1267;139176;-82
2023/06/20 00:33:03;;;;;;;21.40;13.10;;;;;;;21.08;62.41;100382.39;219441;1267;140399;-82
2023/06/20 00:38:03;;;;;;;18.30;13.30;;;;;;;20.94;63.33;100383.54;219997;1265;139304;-82
2023/06/20 00:43:04;;;;;;;16.80;13.30;;;;;;;20.79;64.50;100382.58;219602;1265;140862;-82
2023/06/20 00:48:06;;;;;;;16.90;13.40;;;;;;;20.65;64.87;100387.09;219837;1268;139148;-82
2023/06/20 00:53:07;;;;;;;18.20;13.10;;;;;;;20.55;64.50;100382.42;219572;1266;140893;-82
2023/06/20 00:58:07;;;;;;;18.60;11.50;;;;;;;20.52;64.70;100378.69;220015;1266;139087;-82
2023/06/20 01:03:12;;;;;;;16.50;11.30;;;;;;;20.48;64.92;100374.84;219576;1266;139387;-82
2023/06/20 01:08:36;;;;;;;18.70;13.60;;;;;;;20.40;65.04;100369.55;219988;1268;138983;-82
2023/06/20 01:13:58;;;;;;;19.20;13.50;;;;;;;20.33;65.05;100371.85;219439;1263;141778;-83
2023/06/20 01:19:05;;;;;;;14.80;10.70;;;;;;;20.23;65.50;100371.58;219438;1265;140480;-83
2023/06/20 01:24:18;;;;;;;21.20;15.40;;;;;;;20.18;65.64;100374.05;220018;1267;138366;-82
2023/06/20 01:29:45;;;;;;;24.70;18.30;;;;;;;20.12;65.39;100368.72;219369;1267;140791;-81
2023/06/20 01:34:51;;;;;;;23.40;17.10;;;;;;;20.07;65.14;100375.62;219990;1265;139246;-82
2023/06/20 01:39:55;;;;;;;22.10;16.50;;;;;;;20.01;66.04;100375.84;219414;1265;141113;-82
2023/06/20 01:44:59;;;;;;;23.20;16.70;;;;;;;19.93;66.90;100370.81;220062;1267;139399;-82
2023/06/20 01:50:00;;;;;;;20.70;16.00;;;;;;;19.85;67.43;100367.84;219429;1265;140858;-83
2023/06/20 01:55:07;;;;;;;22.40;17.40;;;;;;;19.76;68.04;100370.31;220011;1266;99341;-83
2023/06/20 02:00:10;;;;;;;22.60;16.50;;;;;;;19.68;68.44;100367.67;219212;1264;142038;-82
2023/06/20 02:05:13;;;;;;;21.10;15.30;;;;;;;19.60;68.12;100373.70;220133;1266;138951;-82
2023/06/20 02:10:14;;;;;;;22.40;16.20;;;;;;;19.55;67.93;100376.64;219423;1268;140500;-82
2023/06/20 02:15:17;;;;;;;22.30;15.40;;;;;;;19.49;68.49;100375.61;220029;1266;139119;-82
2023/06/20 02:20:17;;;;;;;24.20;17.70;;;;;;;19.43;68.80;100377.67;219645;1264;140812;-82
2023/06/20 02:25:22;;;;;;;21.60;16.50;;;;;;;19.37;69.20;100373.27;219967;1263;98051;-82
2023/06/20 02:30:26;;;;;;;21.30;16.80;;;;;;;19.32;69.50;100369.66;219297;1267;140278;-82
2023/06/20 02:35:27;;;;;;;22.20;16.70;;;;;;;19.27;69.61;100364.69;220038;1266;139132;-83
2023/06/20 02:40:28;;;;;;;24.50;18.60;;;;;;;19.23;70.17;100366.15;219306;1267;140756;-82
2023/06/20 02:45:29;;;;;;;27.70;19.10;;;;;;;19.18;70.20;100366.73;220051;1264;139269;-82
2023/06/20 02:50:50;;;;;;;24.70;19.40;;;;;;;19.15;70.38;100367.99;219442;1265;140780;-82
2023/06/20 02:55:59;;;;;;;25.80;18.00;;;;;;;19.11;70.85;100363.06;219747;1264;140391;-82
2023/06/20 03:01:01;;;;;;;21.90;16.60;;;;;;;19.08;71.11;100354.30;219565;1265;141099;-82
2023/06/20 03:06:06;;;;;;;23.80;17.90;;;;;;;19.05;71.36;100361.95;220318;1267;139617;-82
2023/06/20 03:11:07;;;;;;;27.90;19.30;;;;;;;19.03;71.77;100364.23;219824;1266;141934;-83
2023/06/20 03:16:09;;;;;;;26.50;18.10;;;;;;;19.02;71.82;100366.88;220041;1267;139386;-83
2023/06/20 03:21:09;;;;;;;26.80;19.10;;;;;;;19.01;71.84;100365.71;219715;1267;141282;-83
2023/06/20 03:26:10;;;;;;;23.80;18.40;;;;;;;19.00;71.92;100364.14;220112;1267;140916;-82
2023/06/20 03:31:10;;;;;;;26.80;18.20;;;;;;;18.99;72.27;100367.59;219594;1263;140617;-82
2023/06/20 03:36:12;;;;;;;28.00;18.40;;;;;;;19.00;72.59;100370.98;219740;1266;139513;-83
2023/06/20 03:41:12;;;;;;;25.40;18.50;;;;;;;19.00;72.85;100371.78;219478;1265;141601;-83
2023/06/20 03:46:13;;;;;;;26.50;19.00;;;;;;;19.02;72.97;100368.77;219872;1266;139772;-83
2023/06/20 03:51:13;;;;;;;23.40;17.80;;;;;;;19.05;73.16;100370.23;219283;1267;142230;-83
2023/06/20 03:56:14;;;;;;;25.80;19.30;;;;;;;19.08;73.09;100373.58;219655;1264;139714;-83
2023/06/20 04:01:14;;;;;;;23.70;18.20;;;;;;;19.13;73.67;100376.02;219465;1267;140923;-83
2023/06/20 04:06:17;;;;;;;28.30;20.40;;;;;;;19.20;73.76;100371.86;219926;1267;139536;-83
2023/06/20 04:11:17;;;;;;;23.50;18.80;;;;;;;19.26;74.00;100374.36;219154;1268;141798;-83
2023/06/20 04:16:18;;;;;;;24.30;18.10;;;;;;;19.35;74.13;100375.41;220048;1267;139733;-84
2023/06/20 04:21:18;;;;;;;27.30;19.00;;;;;;;19.43;74.10;100375.34;219657;1266;141000;-84
2023/06/20 04:26:19;;;;;;;25.00;17.70;;;;;;;19.53;74.02;100378.20;220090;1265;139937;-84
2023/06/20 04:31:19;;;;;;;22.50;17.30;;;;;;;19.65;73.89;100377.16;219582;1263;141754;-83
2023/06/20 04:36:20;;;;;;;20.60;17.20;;;;;;;19.79;73.87;100377.50;219860;1266;139626;-84
2023/06/20 04:41:20;;;;;;;24.30;18.10;;;;;;;19.94;73.57;100373.19;219404;1268;141281;-84
2023/06/20 04:46:21;;;;;;;24.20;18.30;;;;;;;20.07;73.58;100376.64;219788;1266;139759;-84
2023/06/20 04:51:21;;;;;;;23.10;17.30;;;;;;;20.24;72.96;100372.81;219082;1268;141160;-84
2023/06/20 04:56:22;;;;;;;25.00;17.80;;;;;;;20.42;72.44;100374.27;219880;1267;139660;-84
2023/06/20 05:01:23;;;;;;;23.70;16.90;;;;;;;20.61;71.94;100372.98;219563;1266;140781;-84
2023/06/20 05:06:23;;;;;;;24.50;16.50;;;;;;;20.82;71.63;100376.25;219959;1268;139733;-84
2023/06/20 05:11:24;;;;;;;27.60;17.70;;;;;;;21.06;71.00;100375.64;219199;1264;142270;-85
2023/06/20 05:16:25;;;;;;;23.10;16.30;;;;;;;21.35;70.46;100377.95;220123;1267;140257;-84
2023/06/20 05:21:25;;;;;;;21.30;16.40;;;;;;;21.74;70.18;100380.31;219563;1271;141069;-84
2023/06/20 05:26:26;;;;;;;23.40;16.10;;;;;;;22.21;69.77;100382.59;220089;1268;139890;-85
2023/06/20 05:31:26;;;;;;;23.50;13.90;;;;;;;22.81;68.55;100382.40;219330;1266;141170;-85
2023/06/20 05:36:26;;;;;;;22.60;14.30;;;;;;;23.53;66.49;100384.64;219724;1268;139943;-83
2023/06/20 05:41:27;;;;;;;23.10;14.60;;;;;;;24.30;64.14;100386.05;219547;1264;140387;-83
2023/06/20 05:46:27;;;;;;;21.70;12.90;;;;;;;25.11;62.58;100383.59;220141;1268;139623;-86
2023/06/20 05:51:29;;;;;;;17.80;13.90;;;;;;;25.96;60.57;100396.58;219427;1268;140397;-85
2023/06/20 05:56:29;;;;;;;20.00;13.00;;;;;;;26.77;58.07;100399.82;220081;1263;139005;-86
2023/06/20 06:01:30;;;;;;;18.30;13.90;;;;;;;27.41;56.53;100410.11;219674;1268;140977;-87
2023/06/20 06:06:31;;;;;;;24.00;14.20;;;;;;;28.15;54.80;100416.23;220227;1267;97893;-85
2023/06/20 06:11:31;;;;;;;16.90;12.40;;;;;;;28.84;53.21;100414.52;219446;1264;141271;-86
2023/06/20 06:16:32;;;;;;;17.70;11.30;;;;;;;29.24;50.91;100418.80;220057;1266;138966;-86
2023/06/20 06:21:32;;;;;;;18.20;11.00;;;;;;;29.66;49.74;100416.45;219439;1264;141153;-85
2023/06/20 06:26:35;;;;;;;20.50;10.30;;;;;;;30.09;48.19;100419.89;219972;1266;139228;-84
2023/06/20 06:31:37;;;;;;;18.30;11.30;;;;;;;30.49;46.72;100418.05;219556;1268;141277;-83
2023/06/20 06:36:37;;;;;;;21.00;10.40;;;;;;;30.89;46.50;100417.95;219940;1268;137010;-84
2023/06/20 06:41:38;;;;;;;16.20;10.50;;;;;;;31.35;45.17;100424.73;219429;1265;141075;-83
2023/06/20 06:46:38;;;;;;;14.50;8.90;;;;;;;31.73;44.27;100427.85;220060;1269;138928;-85
2023/06/20 06:51:39;;;;;;;16.60;9.90;;;;;;;32.13;42.87;100432.88;219311;1267;141115;-84
2023/06/20 06:56:40;;;;;;;13.80;8.90;;;;;;;32.44;42.59;100438.69;220020;1264;138883;-83
2023/06/20 07:01:40;;;;;;;17.00;9.70;;;;;;;32.78;40.62;100446.16;219644;1266;140472;-83
2023/06/20 07:06:41;;;;;;;14.20;9.20;;;;;;;32.85;40.49;100443.10;220508;1265;98019;-84
2023/06/20 07:11:41;;;;;;;17.60;9.50;;;;;;;33.26;40.17;100444.77;219826;1264;140261;-84
2023/06/20 07:16:41;;;;;;;15.50;9.20;;;;;;;33.63;39.23;100446.17;220313;1269;138950;-85
2023/06/20 07:21:42;;;;;;;13.30;9.20;;;;;;;33.89;37.94;100442.17;219486;1268;141081;-83
2023/06/20 07:26:42;;;;;;;18.50;8.80;;;;;;;34.07;37.66;100442.11;220192;1268;139070;-85
2023/06/20 07:31:43;;;;;;;11.30;8.00;;;;;;;34.19;36.76;100436.91;219470;1266;141163;-83
2023/06/20 07:36:43;;;;;;;11.00;7.90;;;;;;;34.28;36.41;100439.04;220159;1267;97947;-84
2023/06/20 07:41:44;;;;;;;11.10;8.00;;;;;;;34.59;36.39;100437.98;219435;1267;140219;-84
2023/06/20 07:46:44;;;;;;;21.60;8.70;;;;;;;34.96;36.11;100437.26;219975;1266;139235;-81
2023/06/20 07:51:46;;;;;;;56.80;12.70;;;;;;;35.27;34.90;100439.24;219547;1267;140158;-84
2023/06/20 07:56:46;;;;;;;18.40;8.80;;;;;;;35.67;34.62;100434.95;220195;1268;139647;-84
2023/06/20 08:01:46;;;;;;;10.50;8.30;;;;;;;36.07;33.98;100428.31;219443;1270;141377;-84
2023/06/20 08:06:47;;;;;;;13.00;8.60;;;;;;;36.23;33.51;100430.74;220218;1264;98397;-84
2023/06/20 08:11:47;;;;;;;17.50;9.10;;;;;;;36.36;32.56;100427.28;219463;1266;141930;-82
2023/06/20 08:16:48;;;;;;;66.60;12.30;;;;;;;36.58;31.97;100425.73;220031;1268;138416;-83
2023/06/20 08:21:48;;;;;;;12.60;9.00;;;;;;;36.94;31.73;100424.49;219438;1270;140537;-83
2023/06/20 08:26:48;;;;;;;28.40;9.50;;;;;;;36.93;31.50;100422.60;219992;1267;139522;-84
2023/06/20 08:31:49;;;;;;;70.30;13.40;;;;;;;37.42;31.07;100416.63;219367;1267;140221;-85
2023/06/20 08:36:50;;;;;;;14.00;9.90;;;;;;;37.81;30.38;100416.02;220384;1269;97941;-86
2023/06/20 08:41:51;;;;;;;13.70;9.70;;;;;;;37.93;30.03;100417.04;219622;1264;140166;-84
2023/06/20 08:46:57;;;;;;;13.10;9.20;;;;;;;38.36;29.40;100410.48;219978;1267;137965;-84
2023/06/20 08:52:02;;;;;;;12.40;8.90;;;;;;;38.42;29.13;100406.50;219695;1264;140347;-84
2023/06/20 08:57:06;;;;;;;12.30;8.50;;;;;;;38.42;28.36;100405.25;220238;1267;139066;-85
2023/06/20 09:02:07;;;;;;;12.70;9.00;;;;;;;38.23;28.10;100402.67;219406;1269;140238;-84
2023/06/20 09:07:19;;;;;;;11.30;8.40;;;;;;;38.65;27.96;100411.01;220091;1267;100158;-85
2023/06/20 09:12:20;;;;;;;9.70;7.50;;;;;;;38.91;26.88;100410.27;219718;1267;141694;-85
2023/06/20 09:17:21;;;;;;;10.40;7.60;;;;;;;38.81;26.96;100409.03;220158;1264;138124;-86
2023/06/20 09:22:25;;;;;;;9.90;7.20;;;;;;;38.94;26.42;100408.02;219528;1267;140749;-83
2023/06/20 09:27:25;;;;;;;14.80;8.10;;;;;;;38.98;26.04;100400.18;220288;1266;138317;-84
2023/06/20 09:32:26;;;;;;;24.20;9.50;;;;;;;39.76;25.83;100387.98;219616;1264;141302;-86
2023/06/20 09:37:36;;;;;;;16.80;7.80;;;;;;;40.12;25.16;100392.69;220052;1267;97975;-83
2023/06/20 09:42:38;;;;;;;9.70;7.90;;;;;;;40.46;24.73;100396.69;219575;1264;139336;-84
2023/06/20 09:47:39;;;;;;;10.60;7.80;;;;;;;40.79;24.51;100395.02;219920;1264;137978;-83
2023/06/20 09:52:46;;;;;;;10.50;8.40;;;;;;;40.96;24.00;100389.86;219371;1267;139108;-84
2023/06/20 09:57:53;;;;;;;15.70;7.70;;;;;;;40.87;24.13;100388.89;219967;1267;139791;-84
2023/06/20 10:02:58;;;;;;;11.50;7.20;;;;;;;40.91;23.93;100393.59;219388;1264;230118;-82
2023/06/20 10:08:00;;;;;;;13.10;8.90;;;;;;;41.15;23.68;100391.70;219985;1264;138928;-83
2023/06/20 10:13:00;;;;;;;11.60;8.40;;;;;;;41.39;23.24;100389.59;219558;1267;140616;-82
2023/06/20 10:18:02;;;;;;;8.30;7.30;;;;;;;41.52;23.90;100391.04;219985;1264;138646;-84
2023/06/20 10:23:09;;;;;;;9.20;7.50;;;;;;;41.61;24.12;100383.16;219656;1267;228502;-85
2023/06/20 10:28:12;;;;;;;9.80;8.30;;;;;;;41.69;23.49;100379.60;219791;1267;139199;-83
2023/06/20 10:33:13;;;;;;;9.50;8.50;;;;;;;41.72;23.20;100375.89;219278;1267;141531;-83
2023/06/20 10:38:14;;;;;;;10.30;8.50;;;;;;;41.85;23.21;100379.44;220180;1264;138130;-85
2023/06/20 10:43:16;;;;;;;12.70;7.80;;;;;;;41.98;22.81;100375.31;219543;1264;140756;-83
2023/06/20 10:48:17;;;;;;;;;;;;;;;41.93;21.72;100371.81;220281;1264;140234;-83
2023/06/20 10:53:18;;;;;;;9.10;7.90;;;;;;;41.64;21.52;100369.06;219577;1267;127683;-84
2023/06/20 10:58:18;;;;;;;9.90;7.50;;;;;;;41.71;21.45;100369.84;220146;1267;138762;-83
2023/06/20 11:03:20;;;;;;;12.60;9.20;;;;;;;41.60;21.41;100360.55;219383;1267;139999;-84
2023/06/20 11:08:23;;;;;;;9.60;8.50;;;;;;;41.42;21.77;100348.73;220010;1267;138483;-85
2023/06/20 11:13:23;;;;;;;12.50;8.10;;;;;;;41.62;22.16;100349.99;219555;1264;140001;-85
2023/06/20 11:18:24;;;;;;;13.30;8.20;;;;;;;41.17;22.16;100342.30;219680;1264;138719;-87
2023/06/20 11:23:34;;;;;;;11.30;8.50;;;;;;;40.90;22.01;100342.86;219377;1264;139873;-84
2023/06/20 11:28:36;;;;;;;9.60;7.60;;;;;;;40.53;22.04;100340.30;219830;1267;139158;-83
2023/06/20 11:33:37;;;;;;;11.40;8.60;;;;;;;40.25;22.38;100339.07;219522;1267;139853;-86
2023/06/20 11:38:39;;;;;;;13.80;9.10;;;;;;;40.19;22.79;100335.67;219821;1267;138651;-83
2023/06/20 11:43:41;;;;;;;10.40;8.80;;;;;;;40.55;22.67;100332.24;219708;1264;140102;-84
2023/06/20 11:48:53;;;;;;;12.10;9.30;;;;;;;40.87;22.82;100322.25;220149;1266;97971;-84
2023/06/20 11:54:06;;;;;;;10.30;8.10;;;;;;;41.06;22.34;100323.48;219786;1264;138441;-85
2023/06/20 11:59:08;;;;;;;14.00;8.90;;;;;;;40.92;22.43;100317.21;220383;1264;140369;-84
2023/06/20 12:04:12;;;;;;;10.00;8.70;;;;;;;40.90;22.77;100317.20;220384;1267;138365;-84
2023/06/20 12:09:17;;;;;;;11.00;9.50;;;;;;;40.85;22.68;100321.53;219866;1264;139804;-84
2023/06/20 12:14:19;;;;;;;14.20;9.30;;;;;;;40.54;21.82;100321.17;219933;1264;139012;-83
2023/06/20 12:19:20;;;;;;;11.40;9.20;;;;;;;39.66;22.68;100315.49;219574;1267;140788;-83
2023/06/20 12:24:23;;;;;;;11.50;9.10;;;;;;;39.20;23.52;100315.45;220003;1264;138590;-83
2023/06/20 12:29:24;;;;;;;11.90;9.00;;;;;;;38.99;23.84;100317.79;219138;1267;140971;-84
2023/06/20 12:34:24;;;;;;;10.20;8.60;;;;;;;38.22;24.12;100316.02;220046;1264;138361;-84
2023/06/20 12:39:25;;;;;;;12.40;8.60;;;;;;;37.82;24.49;100314.25;219685;1264;140380;-83
2023/06/20 12:44:26;;;;;;;13.60;8.50;;;;;;;37.37;24.69;100320.75;219807;1267;138522;-81
2023/06/20 12:49:26;;;;;;;13.70;9.10;;;;;;;37.04;24.62;100310.66;219639;1267;140898;-86
2023/06/20 12:54:27;;;;;;;14.60;9.30;;;;;;;36.76;24.72;100306.50;220134;1264;138143;-85
2023/06/20 12:59:28;;;;;;;10.20;8.40;;;;;;;36.59;25.35;100304.31;219658;1264;140532;-84
2023/06/20 13:04:28;;;;;;;11.70;8.60;;;;;;;36.82;25.71;100302.85;220308;1265;138695;-83
2023/06/20 13:09:29;;;;;;;10.50;8.60;;;;;;;36.64;25.45;100299.23;219650;1263;140932;-86
2023/06/20 13:14:29;;;;;;;11.40;8.40;;;;;;;36.36;26.15;100302.87;220423;1264;138965;-86
2023/06/20 13:19:30;;;;;;;11.00;9.20;;;;;;;36.28;24.83;100300.64;219836;1264;141003;-85
2023/06/20 13:24:31;;;;;;;12.10;8.40;;;;;;;35.87;25.03;100310.41;220043;1264;138288;-85
2023/06/20 13:29:31;;;;;;;11.90;8.50;;;;;;;35.52;25.42;100311.41;219908;1267;140957;-86
2023/06/20 13:34:33;;;;;;;10.20;8.20;;;;;;;35.17;25.73;100313.02;220122;1264;138580;-84
2023/06/20 13:39:33;;;;;;;13.00;9.10;;;;;;;34.94;26.16;100308.36;219647;1264;142965;-82
2023/06/20 13:44:34;;;;;;;10.20;8.50;;;;;;;34.80;27.09;100305.35;220027;1264;138308;-83
2023/06/20 13:49:35;;;;;;;12.40;9.70;;;;;;;34.78;27.88;100302.05;220264;1264;139743;-85
2023/06/20 13:54:35;;;;;;;11.60;9.50;;;;;;;34.66;27.31;100304.05;220177;1264;138537;-83
2023/06/20 13:59:36;;;;;;;12.80;9.30;;;;;;;34.41;27.35;100302.98;219990;1264;140480;-84
2023/06/20 14:04:42;;;;;;;12.90;8.20;;;;;;;34.19;28.70;100304.39;220266;1264;138788;-86
2023/06/20 14:09:43;;;;;;;10.60;8.30;;;;;;;34.22;29.23;100299.88;219192;1267;143852;-83
2023/06/20 14:14:44;;;;;;;13.10;9.50;;;;;;;34.18;28.84;100294.13;219820;1267;139225;-81
2023/06/20 14:19:45;;;;;;;13.00;8.90;;;;;;;34.07;28.66;100295.39;219595;1267;141082;-84
2023/06/20 14:24:46;;;;;;;11.60;9.10;;;;;;;33.76;29.02;100298.14;220286;1263;98490;-83
2023/06/20 14:29:46;;;;;;;12.30;9.20;;;;;;;33.41;29.79;100297.15;219659;1264;139060;-83
2023/06/20 14:34:47;;;;;;;11.90;9.40;;;;;;;33.22;30.56;100298.22;220202;1267;138416;-83
2023/06/20 14:39:47;;;;;;;10.50;8.60;;;;;;;33.16;31.40;100295.39;219609;1264;140090;-83
2023/06/20 14:44:48;;;;;;;13.00;8.60;;;;;;;33.03;31.03;100291.13;219923;1264;138377;-84
2023/06/20 14:49:48;;;;;;;13.00;8.40;;;;;;;33.02;31.71;100289.75;219818;1265;140571;-83
2023/06/20 14:54:48;;;;;;;13.60;9.10;;;;;;;33.11;31.55;100289.29;220429;1267;97915;-83
2023/06/20 14:59:49;;;;;;;12.70;8.90;;;;;;;33.20;32.11;100290.84;219490;1265;140038;-83
2023/06/20 15:04:49;;;;;;;13.00;8.90;;;;;;;33.24;32.45;100290.64;219996;1267;138821;-82
2023/06/20 15:09:49;;;;;;;13.40;9.50;;;;;;;33.17;31.09;100284.91;219521;1265;140083;-82
2023/06/20 15:14:50;;;;;;;11.40;8.10;;;;;;;33.16;31.21;100287.67;219769;1264;140051;-82
2023/06/20 15:19:50;;;;;;;10.30;8.10;;;;;;;33.14;32.50;100282.77;219457;1264;141956;-83
2023/06/20 15:24:51;;;;;;;10.90;8.20;;;;;;;33.18;33.82;100280.33;221029;1267;97941;-83
2023/06/20 15:29:51;;;;;;;11.50;8.60;;;;;;;33.17;33.58;100282.37;220050;1264;141620;-83
2023/06/20 15:34:52;;;;;;;11.80;8.90;;;;;;;33.02;31.76;100286.42;220535;1264;138507;-83
2023/06/20 15:39:52;;;;;;;13.30;9.20;;;;;;;32.62;32.13;100301.52;219755;1267;140978;-86
2023/06/20 15:44:55;;;;;;;13.90;9.60;;;;;;;32.08;34.28;100314.23;220200;1264;138765;-84
2023/06/20 15:49:55;;;;;;;12.00;9.80;;;;;;;31.79;35.77;100318.27;219475;1267;142862;-84
2023/06/20 15:54:56;;;;;;;16.40;10.10;;;;;;;31.33;37.30;100324.59;220192;1264;98014;-83
2023/06/20 15:59:56;;;;;;;11.70;8.80;;;;;;;30.87;38.79;100321.63;219418;1264;140748;-83
2023/06/20 16:04:57;;;;;;;12.30;8.80;;;;;;;30.61;39.25;100312.09;219792;1264;138984;-80
2023/06/20 16:09:57;;;;;;;12.30;8.90;;;;;;;30.45;40.14;100312.08;219334;1266;140163;-85
2023/06/20 16:14:58;;;;;;;16.30;10.30;;;;;;;30.23;41.21;100326.05;219839;1267;138438;-83
2023/06/20 16:20:00;;;;;;;15.60;10.30;;;;;;;29.87;42.40;100322.80;219426;1264;140270;-84
2023/06/20 16:25:01;;;;;;;16.70;10.30;;;;;;;29.54;43.14;100315.30;219803;1265;98040;-84
2023/06/20 16:30:02;;;;;;;14.40;9.70;;;;;;;29.40;43.55;100305.57;219369;1264;139851;-84
2023/06/20 16:35:03;;;;;;;12.10;9.90;;;;;;;29.35;43.77;100294.98;219854;1264;138195;-83
2023/06/20 16:40:05;;;;;;;12.40;9.60;;;;;;;29.33;43.85;100296.84;219424;1266;142230;-84
2023/06/20 16:45:07;;;;;;;12.60;9.20;;;;;;;29.29;44.30;100294.86;220085;1267;138685;-83
2023/06/20 16:50:08;;;;;;;14.00;10.80;;;;;;;29.19;44.34;100293.47;219578;1267;140392;-83
2023/06/20 16:55:10;;;;;;;16.00;9.40;;;;;;;29.12;44.83;100290.49;220109;1267;98492;-83
2023/06/20 17:00:11;;;;;;;16.60;9.90;;;;;;;29.06;45.06;100284.89;219575;1264;140678;-83
2023/06/20 17:05:12;;;;;;;15.00;9.40;;;;;;;28.87;45.35;100284.35;220107;1267;138811;-83
2023/06/20 17:10:13;;;;;;;16.40;9.90;;;;;;;28.70;45.54;100279.76;219259;1263;141200;-82
2023/06/20 17:15:13;;;;;;;12.20;9.00;;;;;;;28.64;46.02;100267.61;220127;1267;139716;-82
2023/06/20 17:20:14;;;;;;;12.30;8.60;;;;;;;28.63;46.20;100268.52;219476;1265;140456;-82
2023/06/20 17:25:15;;;;;;;12.50;9.30;;;;;;;28.58;46.11;100261.33;220155;1264;97960;-82
2023/06/20 17:30:16;;;;;;;13.10;8.10;;;;;;;28.53;46.73;100262.63;219479;1267;140660;-82
2023/06/20 17:35:16;;;;;;;16.50;10.50;;;;;;;28.43;46.68;100260.19;219776;1265;138872;-82
2023/06/20 17:40:17;;;;;;;12.20;9.20;;;;;;;28.26;47.06;100261.91;219335;1264;141524;-82
2023/06/20 17:45:17;;;;;;;14.20;9.10;;;;;;;28.09;47.24;100260.02;219898;1264;138338;-83
2023/06/20 17:50:18;;;;;;;13.10;9.10;;;;;;;27.96;47.96;100265.14;219293;1267;140907;-82
2023/06/20 17:55:18;;;;;;;14.40;8.90;;;;;;;27.84;47.83;100265.17;219850;1265;97943;-83
2023/06/20 18:00:19;;;;;;;12.40;9.20;;;;;;;27.77;48.52;100262.71;219314;1267;140569;-82
2023/06/20 18:05:19;;;;;;;16.20;8.40;;;;;;;27.72;48.15;100262.91;219821;1264;138315;-83
2023/06/20 18:10:24;;;;;;;12.10;8.00;;;;;;;27.61;48.56;100256.61;219414;1267;140753;-83
2023/06/20 18:15:28;;;;;;;12.90;7.90;;;;;;;27.42;48.95;100254.13;219904;1267;138593;-83
2023/06/20 18:20:28;;;;;;;15.40;8.70;;;;;;;27.28;49.34;100249.09;219300;1265;140800;-83
2023/06/20 18:25:29;;;;;;;11.70;8.10;;;;;;;27.17;49.04;100244.66;219997;1267;97964;-83
2023/06/20 18:30:31;;;;;;;12.80;8.70;;;;;;;27.19;50.04;100240.69;219361;1267;140076;-83
2023/06/20 18:35:32;;;;;;;13.40;8.90;;;;;;;27.16;50.22;100239.15;219666;1267;183017;-83
2023/06/20 18:40:32;;;;;;;13.70;8.90;;;;;;;27.13;50.63;100250.05;219247;1264;140321;-83
2023/06/20 18:45:32;;;;;;;19.20;9.50;;;;;;;27.02;51.16;100251.25;219945;1266;139038;-83
2023/06/20 18:50:33;;;;;;;13.70;8.90;;;;;;;26.85;51.59;100247.77;219284;1264;140644;-83
2023/06/20 18:55:34;;;;;;;11.60;8.50;;;;;;;26.68;52.27;100247.57;219953;1267;97950;-84
2023/06/20 19:00:34;;;;;;;12.80;8.50;;;;;;;26.54;52.89;100249.14;219261;1267;141010;-83
2023/06/20 19:05:35;;;;;;;12.20;9.20;;;;;;;26.40;53.00;100248.75;219898;1267;138270;-83
2023/06/20 19:10:36;;;;;;;14.20;9.80;;;;;;;26.36;53.77;100261.46;219197;1264;141141;-83
2023/06/20 19:15:37;;;;;;;16.90;9.70;;;;;;;26.21;54.23;100259.98;219830;1264;138846;-83
2023/06/20 19:20:38;;;;;;;15.50;10.60;;;;;;;26.01;54.64;100257.42;219071;1264;141000;-82
2023/06/20 19:25:38;;;;;;;20.20;11.40;;;;;;;25.92;55.23;100256.79;219986;1267;139320;-84
2023/06/20 19:30:40;;;;;;;14.30;10.60;;;;;;;25.85;55.74;100259.30;219517;1263;141211;-83
2023/06/20 19:35:40;;;;;;;16.60;11.20;;;;;;;25.82;56.20;100260.38;220044;1264;138605;-83
2023/06/20 19:40:41;;;;;;;15.90;11.90;;;;;;;25.75;56.14;100263.69;219956;1264;140610;-84
2023/06/20 19:45:41;;;;;;;19.00;13.50;;;;;;;25.67;56.01;100263.11;220338;1264;138570;-83
2023/06/20 19:50:41;;;;;;;17.50;14.00;;;;;;;25.59;56.34;100262.16;219655;1264;141753;-84
2023/06/20 19:55:42;;;;;;;19.20;14.40;;;;;;;25.50;56.57;100266.48;220353;1268;138872;-84
2023/06/20 20:00:47;;;;;;;19.70;12.60;;;;;;;25.43;57.11;100268.02;219901;1263;141685;-83
2023/06/20 20:05:47;;;;;;;18.70;13.50;;;;;;;25.38;57.62;100268.34;220290;1267;138530;-83
2023/06/20 20:10:49;;;;;;;20.30;15.30;;;;;;;25.32;58.20;100262.27;219666;1267;140389;-83
2023/06/20 20:15:49;;;;;;;23.50;15.30;;;;;;;25.25;58.35;100267.73;220217;1267;139202;-84
2023/06/20 20:20:49;;;;;;;22.20;16.00;;;;;;;25.21;58.61;100263.23;219705;1266;139770;-84
2023/06/20 20:25:50;;;;;;;21.30;15.10;;;;;;;25.17;58.97;100264.27;219902;1264;139024;-84
2023/06/20 20:30:51;;;;;;;19.30;14.90;;;;;;;25.13;59.55;100264.08;219844;1267;141008;-84
2023/06/20 20:35:51;;;;;;;20.70;14.40;;;;;;;25.07;59.82;100262.98;220132;1264;138745;-83
2023/06/20 20:40:52;;;;;;;18.50;15.70;;;;;;;25.04;59.82;100265.80;219563;1266;140821;-84
2023/06/20 20:45:53;;;;;;;22.30;15.60;;;;;;;25.00;60.59;100260.80;220262;1264;138451;-83
2023/06/20 20:50:54;;;;;;;20.10;14.80;;;;;;;24.95;61.27;100253.09;220520;1268;141357;-83
2023/06/20 20:55:54;;;;;;;20.40;14.60;;;;;;;24.93;61.19;100247.73;221002;1265;139497;-83
2023/06/20 21:00:55;;;;;;;23.10;15.10;;;;;;;24.93;60.81;100248.38;220315;1264;140905;-84
2023/06/20 21:05:55;;;;;;;19.60;15.10;;;;;;;24.94;60.24;100250.25;220853;1265;138909;-82
2023/06/20 21:10:56;;;;;;;18.00;14.70;;;;;;;24.95;60.53;100253.91;220136;1266;140216;-82
2023/06/20 21:15:56;;;;;;;20.70;15.00;;;;;;;24.94;60.42;100253.39;220701;1266;139630;-84
2023/06/20 21:20:57;;;;;;;18.80;15.30;;;;;;;24.93;60.25;100249.66;220210;1265;142661;-83
2023/06/20 21:25:57;;;;;;;19.30;14.90;;;;;;;24.92;60.71;100247.86;220785;1265;138981;-83
2023/06/20 21:31:02;;;;;;;18.80;13.80;;;;;;;24.90;61.06;100242.95;220764;1266;142260;-84
2023/06/20 21:36:02;;;;;;;17.40;14.20;;;;;;;24.89;60.64;100243.75;222592;1266;138256;-82
2023/06/20 21:41:03;;;;;;;23.70;16.60;;;;;;;24.86;61.02;100243.55;220082;1265;141462;-86
2023/06/20 21:46:04;;;;;;;20.50;15.70;;;;;;;24.81;61.77;100238.41;221006;1266;138688;-86
2023/06/20 21:51:07;;;;;;;23.10;18.50;;;;;;;24.76;61.88;100238.49;219778;1267;140920;-88
2023/06/20 21:56:08;;;;;;;24.10;17.40;;;;;;;24.71;62.34;100239.88;220092;1267;139038;-87
2023/06/20 22:01:11;;;;;;;22.30;15.80;;;;;;;24.66;62.76;100237.81;219594;1267;140438;-86
2023/06/20 22:06:12;;;;;;;26.80;17.50;;;;;;;24.61;63.32;100242.81;220013;1266;139067;-84
2023/06/20 22:11:13;;;;;;;21.30;15.70;;;;;;;24.55;63.45;100243.92;219693;1266;140190;-84
2023/06/20 22:16:13;;;;;;;20.20;17.40;;;;;;;24.52;63.60;100244.60;220232;1266;139414;-84
2023/06/20 22:21:14;;;;;;;21.70;18.80;;;;;;;24.45;64.44;100242.77;219680;1264;141460;-84
2023/06/20 22:26:14;;;;;;;27.50;18.80;;;;;;;24.36;64.86;100250.98;220043;1267;138725;-83
2023/06/20 22:31:14;;;;;;;29.60;20.00;;;;;;;24.35;66.13;100250.02;220214;1266;141582;-83